Aviation Digital Data Service (ADDS)

Output produced by METARs form (1420 UTC 08 May 2021)
found at http://aviationweather.gov/metar/data/
 
KHDC 081415Z AUTO 13006KT 080V210 10SM CLR 23/17 A3011 RMK AO2
KHDC 081355Z AUTO 13005KT 10SM CLR 22/17 A3011 RMK AO2
KHDC 081335Z AUTO 13003KT 10SM CLR 21/16 A3011 RMK AO2
KHDC 081120Z 0812/0912 00000KT P6SM FEW250 
     FM081700 16009KT P6SM FEW250 
     FM091000 VRB04KT P6SM FEW030